CYDA

Dawson City Airport

Dawson City, , Canada
METAR CYDA 170100Z 06007G15KT 030V120 20SM FEW160 BKN220 12/M00 A2954 RMK AC2CI4 STN OPN TILL 0200Z SLP019 DENSITY ALT 1700FT
Observed Flight Rules
Oct-17 @ 01:00 UTC (4 hours ago) Visual Flight Rules
Wind Visibility Clouds
60° at 7 knots
 Gusting to 15 knots
20 miles
  • Few at 16,000' AGL
  • Broken at 22,000' AGL
Temperatures Readings
Current 12°C / 54°F
Dewpoint 0°C / 32°F
Humidity 44%
Altimeter 29.54" Hg
Pressure 1001.9 hPa
Elevation 369
METAR CYDA 170100Z 06007G15KT 030V120 20SM FEW160 BKN220 12/M00 A2954 RMK AC2CI4 STN OPN TILL 0200Z SLP019 DENSITY ALT 1700FT
Observed Flight Rules
Oct-17 @ 01:00 UTC
(4 hours ago)
VFR
Wind Visibility
60° at 7 knots
 Gusting to 15 knots
20 miles
Clouds
  • Few at 16,000' AGL
  • Broken at 22,000' AGL
Temperature Dewpoint
12°C / 54°F 0°C / 32°F
Humidity Altimeter Pressure
44% 29.54" Hg 1001.9 hPa